sensor_id;sensor_type;location;lat;lon;timestamp;P1;durP1;ratioP1;P2;durP2;ratioP2
22955;SDS011;40888;48.148;11.526;2022-08-11T00:00:57;2.45;;;2.08;;
22955;SDS011;40888;48.148;11.526;2022-08-11T00:03:23;2.50;;;2.30;;
22955;SDS011;40888;48.148;11.526;2022-08-11T00:05:51;2.75;;;2.38;;
22955;SDS011;40888;48.148;11.526;2022-08-11T00:08:24;2.88;;;2.22;;
22955;SDS011;40888;48.148;11.526;2022-08-11T00:11:01;4.32;;;2.33;;
22955;SDS011;40888;48.148;11.526;2022-08-11T00:13:33;3.17;;;2.70;;
22955;SDS011;40888;48.148;11.526;2022-08-11T00:15:59;2.50;;;2.30;;
22955;SDS011;40888;48.148;11.526;2022-08-11T00:18:27;2.95;;;2.63;;
22955;SDS011;40888;48.148;11.526;2022-08-11T00:20:56;3.55;;;2.65;;
22955;SDS011;40888;48.148;11.526;2022-08-11T00:23:23;3.95;;;2.65;;
22955;SDS011;40888;48.148;11.526;2022-08-11T00:25:50;3.58;;;2.47;;
22955;SDS011;40888;48.148;11.526;2022-08-11T00:28:29;5.57;;;2.50;;
22955;SDS011;40888;48.148;11.526;2022-08-11T00:31:04;3.22;;;2.40;;
22955;SDS011;40888;48.148;11.526;2022-08-11T00:33:36;2.75;;;2.53;;
22955;SDS011;40888;48.148;11.526;2022-08-11T00:36:03;3.15;;;2.75;;
22955;SDS011;40888;48.148;11.526;2022-08-11T00:38:32;4.30;;;2.55;;
22955;SDS011;40888;48.148;11.526;2022-08-11T00:43:46;2.95;;;2.65;;
22955;SDS011;40888;48.148;11.526;2022-08-11T00:53:53;3.60;;;2.83;;
22955;SDS011;40888;48.148;11.526;2022-08-11T01:01:46;2.67;;;2.47;;
22955;SDS011;40888;48.148;11.526;2022-08-11T01:09:30;2.90;;;2.60;;
22955;SDS011;40888;48.148;11.526;2022-08-11T01:12:17;4.97;;;2.70;;
22955;SDS011;40888;48.148;11.526;2022-08-11T01:17:31;4.53;;;2.63;;
22955;SDS011;40888;48.148;11.526;2022-08-11T01:25:39;4.15;;;2.97;;
22955;SDS011;40888;48.148;11.526;2022-08-11T01:28:19;3.53;;;2.63;;
22955;SDS011;40888;48.148;11.526;2022-08-11T01:36:22;5.20;;;3.08;;
22955;SDS011;40888;48.148;11.526;2022-08-11T01:47:25;5.65;;;2.88;;
22955;SDS011;40888;48.148;11.526;2022-08-11T01:50:20;5.50;;;2.88;;
22955;SDS011;40888;48.148;11.526;2022-08-11T01:53:02;4.90;;;2.80;;
22955;SDS011;40888;48.148;11.526;2022-08-11T01:58:07;3.15;;;2.90;;
22955;SDS011;40888;48.148;11.526;2022-08-11T02:01:04;4.28;;;3.08;;
22955;SDS011;40888;48.148;11.526;2022-08-11T02:03:33;3.35;;;3.00;;
22955;SDS011;40888;48.148;11.526;2022-08-11T02:06:03;4.65;;;3.05;;
22955;SDS011;40888;48.148;11.526;2022-08-11T02:09:00;5.63;;;2.72;;
22955;SDS011;40888;48.148;11.526;2022-08-11T02:11:31;3.55;;;3.00;;
22955;SDS011;40888;48.148;11.526;2022-08-11T02:19:34;2.92;;;2.65;;
22955;SDS011;40888;48.148;11.526;2022-08-11T02:22:41;5.70;;;2.75;;
22955;SDS011;40888;48.148;11.526;2022-08-11T02:28:28;3.17;;;2.97;;
22955;SDS011;40888;48.148;11.526;2022-08-11T02:33:44;4.00;;;3.03;;
22955;SDS011;40888;48.148;11.526;2022-08-11T02:36:20;2.92;;;2.72;;
22955;SDS011;40888;48.148;11.526;2022-08-11T02:38:51;3.47;;;3.17;;
22955;SDS011;40888;48.148;11.526;2022-08-11T02:41:30;5.03;;;3.03;;
22955;SDS011;40888;48.148;11.526;2022-08-11T02:47:08;5.13;;;3.05;;
22955;SDS011;40888;48.148;11.526;2022-08-11T02:50:12;3.60;;;3.08;;
22955;SDS011;40888;48.148;11.526;2022-08-11T02:52:34;4.05;;;3.13;;
22955;SDS011;40888;48.148;11.526;2022-08-11T02:55:08;3.05;;;2.85;;
22955;SDS011;40888;48.148;11.526;2022-08-11T02:57:39;3.80;;;3.40;;
22955;SDS011;40888;48.148;11.526;2022-08-11T03:00:13;5.78;;;3.05;;
22955;SDS011;40888;48.148;11.526;2022-08-11T03:02:51;3.55;;;2.97;;
22955;SDS011;40888;48.148;11.526;2022-08-11T03:05:40;5.78;;;3.47;;
22955;SDS011;40888;48.148;11.526;2022-08-11T03:11:06;4.22;;;3.17;;
22955;SDS011;40888;48.148;11.526;2022-08-11T03:22:16;4.10;;;3.05;;
22955;SDS011;40888;48.148;11.526;2022-08-11T03:27:25;4.18;;;3.10;;
22955;SDS011;40888;48.148;11.526;2022-08-11T03:32:27;4.18;;;3.65;;
22955;SDS011;40888;48.148;11.526;2022-08-11T03:34:54;6.53;;;3.40;;
22955;SDS011;40888;48.148;11.526;2022-08-11T03:40:10;3.65;;;3.35;;
22955;SDS011;40888;48.148;11.526;2022-08-11T03:45:08;3.95;;;3.38;;
22955;SDS011;40888;48.148;11.526;2022-08-11T03:55:29;4.13;;;3.30;;
22955;SDS011;40888;48.148;11.526;2022-08-11T03:58:21;5.85;;;3.70;;
22955;SDS011;40888;48.148;11.526;2022-08-11T04:22:43;5.55;;;3.72;;
22955;SDS011;40888;48.148;11.526;2022-08-11T04:27:48;4.53;;;3.95;;
22955;SDS011;40888;48.148;11.526;2022-08-11T04:40:55;4.38;;;3.85;;
22955;SDS011;40888;48.148;11.526;2022-08-11T04:57:53;6.40;;;4.70;;
22955;SDS011;40888;48.148;11.526;2022-08-11T05:04:02;6.88;;;6.18;;
22955;SDS011;40888;48.148;11.526;2022-08-11T05:07:07;6.93;;;4.28;;
22955;SDS011;40888;48.148;11.526;2022-08-11T05:12:13;6.65;;;4.15;;
22955;SDS011;40888;48.148;11.526;2022-08-11T05:14:50;4.60;;;4.20;;
22955;SDS011;40888;48.148;11.526;2022-08-11T05:20:21;4.55;;;4.10;;
22955;SDS011;40888;48.148;11.526;2022-08-11T05:23:08;5.45;;;4.50;;
22955;SDS011;40888;48.148;11.526;2022-08-11T05:25:55;5.32;;;4.13;;
22955;SDS011;40888;48.148;11.526;2022-08-11T05:28:41;6.47;;;4.25;;
22955;SDS011;40888;48.148;11.526;2022-08-11T05:31:32;4.65;;;3.85;;
22955;SDS011;40888;48.148;11.526;2022-08-11T05:34:20;5.38;;;4.22;;
22955;SDS011;40888;48.148;11.526;2022-08-11T05:37:10;5.00;;;4.50;;
22955;SDS011;40888;48.148;11.526;2022-08-11T05:39:43;6.05;;;4.00;;
22955;SDS011;40888;48.148;11.526;2022-08-11T05:42:28;5.80;;;4.53;;
22955;SDS011;40888;48.148;11.526;2022-08-11T05:45:14;4.28;;;3.85;;
22955;SDS011;40888;48.148;11.526;2022-08-11T05:47:59;5.72;;;3.78;;
22955;SDS011;40888;48.148;11.526;2022-08-11T05:50:52;4.30;;;3.85;;
22955;SDS011;40888;48.148;11.526;2022-08-11T05:56:32;4.75;;;4.30;;
22955;SDS011;40888;48.148;11.526;2022-08-11T05:58:58;4.80;;;4.40;;
22955;SDS011;40888;48.148;11.526;2022-08-11T06:01:26;5.65;;;4.43;;
22955;SDS011;40888;48.148;11.526;2022-08-11T06:03:55;5.38;;;3.60;;
22955;SDS011;40888;48.148;11.526;2022-08-11T06:06:48;3.88;;;3.55;;
22955;SDS011;40888;48.148;11.526;2022-08-11T06:09:30;4.68;;;3.88;;
22955;SDS011;40888;48.148;11.526;2022-08-11T06:11:58;9.15;;;3.38;;
22955;SDS011;40888;48.148;11.526;2022-08-11T06:14:25;4.97;;;3.92;;
22955;SDS011;40888;48.148;11.526;2022-08-11T06:16:54;5.47;;;4.00;;
22955;SDS011;40888;48.148;11.526;2022-08-11T06:19:28;4.00;;;3.40;;
22955;SDS011;40888;48.148;11.526;2022-08-11T06:21:55;5.65;;;3.90;;
22955;SDS011;40888;48.148;11.526;2022-08-11T06:24:22;5.97;;;3.63;;
22955;SDS011;40888;48.148;11.526;2022-08-11T06:26:49;5.72;;;3.97;;
22955;SDS011;40888;48.148;11.526;2022-08-11T06:29:16;4.88;;;3.85;;
22955;SDS011;40888;48.148;11.526;2022-08-11T06:31:56;3.97;;;3.58;;
22955;SDS011;40888;48.148;11.526;2022-08-11T06:36:52;8.60;;;4.07;;
22955;SDS011;40888;48.148;11.526;2022-08-11T06:39:26;4.90;;;3.80;;
22955;SDS011;40888;48.148;11.526;2022-08-11T06:41:58;6.43;;;3.85;;
22955;SDS011;40888;48.148;11.526;2022-08-11T06:44:28;8.98;;;3.92;;
22955;SDS011;40888;48.148;11.526;2022-08-11T06:46:58;5.40;;;3.40;;
22955;SDS011;40888;48.148;11.526;2022-08-11T06:49:33;5.63;;;3.85;;
22955;SDS011;40888;48.148;11.526;2022-08-11T06:52:18;6.32;;;3.75;;
22955;SDS011;40888;48.148;11.526;2022-08-11T06:54:51;7.90;;;3.88;;
22955;SDS011;40888;48.148;11.526;2022-08-11T06:57:36;6.30;;;4.07;;
22955;SDS011;40888;48.148;11.526;2022-08-11T07:00:22;7.97;;;4.22;;
22955;SDS011;40888;48.148;11.526;2022-08-11T07:02:59;4.80;;;3.97;;
22955;SDS011;40888;48.148;11.526;2022-08-11T07:13:50;4.20;;;3.67;;
22955;SDS011;40888;48.148;11.526;2022-08-11T07:16:36;5.68;;;3.45;;
22955;SDS011;40888;48.148;11.526;2022-08-11T07:19:05;5.65;;;4.20;;
22955;SDS011;40888;48.148;11.526;2022-08-11T07:21:50;3.75;;;3.42;;
22955;SDS011;40888;48.148;11.526;2022-08-11T07:27:21;4.85;;;3.80;;
22955;SDS011;40888;48.148;11.526;2022-08-11T07:30:09;4.82;;;3.40;;
22955;SDS011;40888;48.148;11.526;2022-08-11T07:32:54;5.85;;;3.97;;
22955;SDS011;40888;48.148;11.526;2022-08-11T07:38:22;5.65;;;4.13;;
22955;SDS011;40888;48.148;11.526;2022-08-11T07:41:11;5.60;;;3.38;;
22955;SDS011;40888;48.148;11.526;2022-08-11T07:43:41;4.53;;;3.22;;
22955;SDS011;40888;48.148;11.526;2022-08-11T07:46:07;10.40;;;3.17;;
22955;SDS011;40888;48.148;11.526;2022-08-11T07:48:53;6.25;;;3.53;;
22955;SDS011;40888;48.148;11.526;2022-08-11T07:51:39;7.65;;;3.70;;
22955;SDS011;40888;48.148;11.526;2022-08-11T07:54:25;5.95;;;3.40;;
22955;SDS011;40888;48.148;11.526;2022-08-11T07:56:52;11.73;;;3.53;;
22955;SDS011;40888;48.148;11.526;2022-08-11T07:59:18;4.40;;;3.10;;
22955;SDS011;40888;48.148;11.526;2022-08-11T08:02:04;5.63;;;3.20;;
22955;SDS011;40888;48.148;11.526;2022-08-11T08:04:48;5.22;;;3.17;;
22955;SDS011;40888;48.148;11.526;2022-08-11T08:07:34;5.60;;;3.25;;
22955;SDS011;40888;48.148;11.526;2022-08-11T08:10:21;6.60;;;3.50;;
22955;SDS011;40888;48.148;11.526;2022-08-11T08:13:06;9.43;;;3.22;;
22955;SDS011;40888;48.148;11.526;2022-08-11T08:15:53;6.28;;;3.42;;
22955;SDS011;40888;48.148;11.526;2022-08-11T08:18:38;3.65;;;3.30;;
22955;SDS011;40888;48.148;11.526;2022-08-11T08:21:05;6.22;;;3.63;;
22955;SDS011;40888;48.148;11.526;2022-08-11T08:23:40;4.38;;;3.30;;
22955;SDS011;40888;48.148;11.526;2022-08-11T08:26:07;5.35;;;3.47;;
22955;SDS011;40888;48.148;11.526;2022-08-11T08:28:54;6.80;;;3.30;;
22955;SDS011;40888;48.148;11.526;2022-08-11T08:31:41;6.15;;;3.15;;
22955;SDS011;40888;48.148;11.526;2022-08-11T08:34:08;7.53;;;3.55;;
22955;SDS011;40888;48.148;11.526;2022-08-11T08:36:34;3.83;;;3.35;;
22955;SDS011;40888;48.148;11.526;2022-08-11T08:39:01;4.25;;;3.47;;
22955;SDS011;40888;48.148;11.526;2022-08-11T08:41:28;4.45;;;3.65;;
22955;SDS011;40888;48.148;11.526;2022-08-11T08:43:56;4.88;;;3.30;;
22955;SDS011;40888;48.148;11.526;2022-08-11T08:46:29;4.80;;;3.03;;
22955;SDS011;40888;48.148;11.526;2022-08-11T08:48:59;3.70;;;3.28;;
22955;SDS011;40888;48.148;11.526;2022-08-11T08:51:26;5.15;;;3.03;;
22955;SDS011;40888;48.148;11.526;2022-08-11T08:54:02;5.88;;;3.63;;
22955;SDS011;40888;48.148;11.526;2022-08-11T08:56:28;4.18;;;3.40;;
22955;SDS011;40888;48.148;11.526;2022-08-11T08:58:58;6.85;;;3.20;;
22955;SDS011;40888;48.148;11.526;2022-08-11T09:01:24;4.72;;;3.33;;
22955;SDS011;40888;48.148;11.526;2022-08-11T09:03:53;6.88;;;3.60;;
22955;SDS011;40888;48.148;11.526;2022-08-11T09:06:19;4.70;;;3.33;;
22955;SDS011;40888;48.148;11.526;2022-08-11T09:08:45;3.05;;;2.80;;
22955;SDS011;40888;48.148;11.526;2022-08-11T09:11:12;5.30;;;3.17;;
22955;SDS011;40888;48.148;11.526;2022-08-11T09:13:57;4.88;;;2.97;;
22955;SDS011;40888;48.148;11.526;2022-08-11T09:16:24;4.07;;;2.88;;
22955;SDS011;40888;48.148;11.526;2022-08-11T09:18:50;3.78;;;3.08;;
22955;SDS011;40888;48.148;11.526;2022-08-11T09:21:17;6.35;;;3.53;;
22955;SDS011;40888;48.148;11.526;2022-08-11T09:23:47;6.22;;;3.40;;
22955;SDS011;40888;48.148;11.526;2022-08-11T09:26:33;6.18;;;3.10;;
22955;SDS011;40888;48.148;11.526;2022-08-11T09:29:18;5.95;;;3.10;;
22955;SDS011;40888;48.148;11.526;2022-08-11T09:31:45;6.93;;;3.45;;
22955;SDS011;40888;48.148;11.526;2022-08-11T09:34:12;5.40;;;3.03;;
22955;SDS011;40888;48.148;11.526;2022-08-11T09:36:40;4.18;;;3.05;;
22955;SDS011;40888;48.148;11.526;2022-08-11T09:39:25;3.15;;;2.83;;
22955;SDS011;40888;48.148;11.526;2022-08-11T09:42:10;6.22;;;3.20;;
22955;SDS011;40888;48.148;11.526;2022-08-11T09:44:37;2.85;;;2.65;;
22955;SDS011;40888;48.148;11.526;2022-08-11T09:47:17;3.95;;;2.70;;
22955;SDS011;40888;48.148;11.526;2022-08-11T09:49:44;3.55;;;2.83;;
22955;SDS011;40888;48.148;11.526;2022-08-11T09:52:13;4.25;;;3.00;;
22955;SDS011;40888;48.148;11.526;2022-08-11T09:54:40;5.20;;;2.60;;
22955;SDS011;40888;48.148;11.526;2022-08-11T09:57:07;3.75;;;2.80;;
22955;SDS011;40888;48.148;11.526;2022-08-11T09:59:53;9.65;;;2.90;;
22955;SDS011;40888;48.148;11.526;2022-08-11T10:02:26;4.22;;;2.80;;
22955;SDS011;40888;48.148;11.526;2022-08-11T10:04:54;4.68;;;2.80;;
22955;SDS011;40888;48.148;11.526;2022-08-11T10:07:44;5.78;;;2.85;;
22955;SDS011;40888;48.148;11.526;2022-08-11T10:10:15;4.35;;;3.05;;
22955;SDS011;40888;48.148;11.526;2022-08-11T10:12:47;4.43;;;2.45;;
22955;SDS011;40888;48.148;11.526;2022-08-11T10:15:15;5.28;;;2.65;;
22955;SDS011;40888;48.148;11.526;2022-08-11T10:18:03;4.05;;;2.30;;
22955;SDS011;40888;48.148;11.526;2022-08-11T10:20:50;5.05;;;2.60;;
22955;SDS011;40888;48.148;11.526;2022-08-11T10:23:18;4.93;;;2.88;;
22955;SDS011;40888;48.148;11.526;2022-08-11T10:26:04;4.68;;;2.75;;
22955;SDS011;40888;48.148;11.526;2022-08-11T10:28:49;2.90;;;2.60;;
22955;SDS011;40888;48.148;11.526;2022-08-11T10:31:15;3.90;;;2.50;;
22955;SDS011;40888;48.148;11.526;2022-08-11T10:34:02;4.10;;;2.47;;
22955;SDS011;40888;48.148;11.526;2022-08-11T10:36:33;6.40;;;2.60;;
22955;SDS011;40888;48.148;11.526;2022-08-11T10:39:02;3.45;;;2.63;;
22955;SDS011;40888;48.148;11.526;2022-08-11T10:41:29;5.22;;;2.55;;
22955;SDS011;40888;48.148;11.526;2022-08-11T10:44:14;7.88;;;2.60;;
22955;SDS011;40888;48.148;11.526;2022-08-11T10:46:41;4.85;;;2.60;;
22955;SDS011;40888;48.148;11.526;2022-08-11T10:49:26;5.78;;;2.50;;
22955;SDS011;40888;48.148;11.526;2022-08-11T10:51:54;3.20;;;2.40;;
22955;SDS011;40888;48.148;11.526;2022-08-11T10:54:39;2.45;;;2.05;;
22955;SDS011;40888;48.148;11.526;2022-08-11T10:57:26;4.65;;;2.50;;
22955;SDS011;40888;48.148;11.526;2022-08-11T11:00:11;2.30;;;2.10;;
22955;SDS011;40888;48.148;11.526;2022-08-11T11:02:43;3.47;;;2.50;;
22955;SDS011;40888;48.148;11.526;2022-08-11T11:07:46;4.80;;;2.70;;
22955;SDS011;40888;48.148;11.526;2022-08-11T11:10:14;6.68;;;2.40;;
22955;SDS011;40888;48.148;11.526;2022-08-11T11:12:43;5.60;;;2.30;;
22955;SDS011;40888;48.148;11.526;2022-08-11T11:15:29;3.40;;;2.40;;
22955;SDS011;40888;48.148;11.526;2022-08-11T11:18:20;2.50;;;2.30;;
22955;SDS011;40888;48.148;11.526;2022-08-11T11:20:53;3.15;;;2.25;;
22955;SDS011;40888;48.148;11.526;2022-08-11T11:23:44;4.03;;;2.38;;
22955;SDS011;40888;48.148;11.526;2022-08-11T11:29:01;4.13;;;2.40;;
22955;SDS011;40888;48.148;11.526;2022-08-11T11:34:11;3.42;;;2.33;;
22955;SDS011;40888;48.148;11.526;2022-08-11T11:39:10;3.08;;;2.35;;
22955;SDS011;40888;48.148;11.526;2022-08-11T11:41:36;5.20;;;2.45;;
22955;SDS011;40888;48.148;11.526;2022-08-11T11:44:03;3.40;;;2.50;;
22955;SDS011;40888;48.148;11.526;2022-08-11T11:46:29;3.15;;;2.15;;
22955;SDS011;40888;48.148;11.526;2022-08-11T11:48:56;2.63;;;2.25;;
22955;SDS011;40888;48.148;11.526;2022-08-11T11:51:24;3.33;;;2.35;;
22955;SDS011;40888;48.148;11.526;2022-08-11T11:53:51;3.58;;;2.28;;
22955;SDS011;40888;48.148;11.526;2022-08-11T11:56:17;2.03;;;1.77;;
22955;SDS011;40888;48.148;11.526;2022-08-11T11:58:46;6.60;;;2.40;;
22955;SDS011;40888;48.148;11.526;2022-08-11T12:01:32;3.25;;;2.30;;
22955;SDS011;40888;48.148;11.526;2022-08-11T12:03:58;3.75;;;2.20;;
22955;SDS011;40888;48.148;11.526;2022-08-11T12:06:25;6.55;;;2.10;;
22955;SDS011;40888;48.148;11.526;2022-08-11T12:08:53;2.33;;;2.13;;
22955;SDS011;40888;48.148;11.526;2022-08-11T12:11:20;5.18;;;2.10;;
22955;SDS011;40888;48.148;11.526;2022-08-11T12:14:06;3.63;;;1.90;;
22955;SDS011;40888;48.148;11.526;2022-08-11T12:16:34;3.67;;;2.25;;
22955;SDS011;40888;48.148;11.526;2022-08-11T12:19:02;2.80;;;2.00;;
22955;SDS011;40888;48.148;11.526;2022-08-11T12:21:28;2.22;;;1.90;;
22955;SDS011;40888;48.148;11.526;2022-08-11T12:23:56;3.00;;;2.38;;
22955;SDS011;40888;48.148;11.526;2022-08-11T12:26:41;3.70;;;1.95;;
22955;SDS011;40888;48.148;11.526;2022-08-11T12:29:17;2.45;;;2.17;;
22955;SDS011;40888;48.148;11.526;2022-08-11T12:31:44;4.53;;;2.25;;
22955;SDS011;40888;48.148;11.526;2022-08-11T12:34:11;5.15;;;2.30;;
22955;SDS011;40888;48.148;11.526;2022-08-11T12:36:42;3.35;;;2.20;;
22955;SDS011;40888;48.148;11.526;2022-08-11T12:39:09;2.78;;;1.80;;
22955;SDS011;40888;48.148;11.526;2022-08-11T12:41:35;3.63;;;1.88;;
22955;SDS011;40888;48.148;11.526;2022-08-11T12:44:25;3.42;;;2.03;;
22955;SDS011;40888;48.148;11.526;2022-08-11T12:47:11;6.47;;;1.90;;
22955;SDS011;40888;48.148;11.526;2022-08-11T12:49:40;3.50;;;1.83;;
22955;SDS011;40888;48.148;11.526;2022-08-11T12:52:29;3.42;;;1.85;;
22955;SDS011;40888;48.148;11.526;2022-08-11T12:54:59;5.30;;;2.15;;
22955;SDS011;40888;48.148;11.526;2022-08-11T13:00:14;2.58;;;2.20;;
22955;SDS011;40888;48.148;11.526;2022-08-11T13:03:00;2.83;;;2.00;;
22955;SDS011;40888;48.148;11.526;2022-08-11T13:05:46;1.90;;;1.77;;
22955;SDS011;40888;48.148;11.526;2022-08-11T13:08:13;2.85;;;1.77;;
22955;SDS011;40888;48.148;11.526;2022-08-11T13:10:42;2.63;;;2.00;;
22955;SDS011;40888;48.148;11.526;2022-08-11T13:13:27;5.88;;;2.22;;
22955;SDS011;40888;48.148;11.526;2022-08-11T13:15:53;2.70;;;1.92;;
22955;SDS011;40888;48.148;11.526;2022-08-11T13:18:20;5.63;;;2.00;;
22955;SDS011;40888;48.148;11.526;2022-08-11T13:20:53;2.83;;;2.00;;
22955;SDS011;40888;48.148;11.526;2022-08-11T13:23:21;2.47;;;1.90;;
22955;SDS011;40888;48.148;11.526;2022-08-11T13:25:48;2.20;;;2.00;;
22955;SDS011;40888;48.148;11.526;2022-08-11T13:28:15;3.28;;;1.90;;
22955;SDS011;40888;48.148;11.526;2022-08-11T13:30:42;2.75;;;1.80;;
22955;SDS011;40888;48.148;11.526;2022-08-11T13:33:27;2.47;;;1.65;;
22955;SDS011;40888;48.148;11.526;2022-08-11T13:35:54;4.03;;;1.83;;
22955;SDS011;40888;48.148;11.526;2022-08-11T13:38:20;2.80;;;2.00;;
22955;SDS011;40888;48.148;11.526;2022-08-11T13:40:48;2.53;;;1.60;;
22955;SDS011;40888;48.148;11.526;2022-08-11T13:43:14;2.88;;;2.00;;
22955;SDS011;40888;48.148;11.526;2022-08-11T13:45:43;3.22;;;2.03;;
22955;SDS011;40888;48.148;11.526;2022-08-11T13:48:11;2.38;;;2.10;;
22955;SDS011;40888;48.148;11.526;2022-08-11T13:50:39;3.00;;;1.95;;
22955;SDS011;40888;48.148;11.526;2022-08-11T13:53:25;3.50;;;1.80;;
22955;SDS011;40888;48.148;11.526;2022-08-11T13:55:52;4.93;;;1.90;;
22955;SDS011;40888;48.148;11.526;2022-08-11T13:58:19;1.63;;;1.52;;
22955;SDS011;40888;48.148;11.526;2022-08-11T14:00:47;2.38;;;1.75;;
22955;SDS011;40888;48.148;11.526;2022-08-11T14:03:13;1.92;;;1.80;;
22955;SDS011;40888;48.148;11.526;2022-08-11T14:05:45;2.72;;;2.05;;
22955;SDS011;40888;48.148;11.526;2022-08-11T14:08:14;3.88;;;1.77;;
22955;SDS011;40888;48.148;11.526;2022-08-11T14:10:42;1.90;;;1.80;;
22955;SDS011;40888;48.148;11.526;2022-08-11T14:13:11;2.30;;;1.92;;
22955;SDS011;40888;48.148;11.526;2022-08-11T14:15:57;4.78;;;1.80;;
22955;SDS011;40888;48.148;11.526;2022-08-11T14:18:28;3.10;;;1.70;;
22955;SDS011;40888;48.148;11.526;2022-08-11T14:20:55;1.80;;;1.65;;
22955;SDS011;40888;48.148;11.526;2022-08-11T14:23:44;2.10;;;1.90;;
22955;SDS011;40888;48.148;11.526;2022-08-11T14:26:12;2.55;;;1.70;;
22955;SDS011;40888;48.148;11.526;2022-08-11T14:28:51;5.40;;;2.00;;
22955;SDS011;40888;48.148;11.526;2022-08-11T14:31:19;4.25;;;2.03;;
22955;SDS011;40888;48.148;11.526;2022-08-11T14:33:46;2.38;;;1.70;;
22955;SDS011;40888;48.148;11.526;2022-08-11T14:36:13;1.80;;;1.70;;
22955;SDS011;40888;48.148;11.526;2022-08-11T14:38:39;3.08;;;1.90;;
22955;SDS011;40888;48.148;11.526;2022-08-11T14:41:07;2.58;;;1.67;;
22955;SDS011;40888;48.148;11.526;2022-08-11T14:43:52;1.80;;;1.70;;
22955;SDS011;40888;48.148;11.526;2022-08-11T14:46:39;4.30;;;1.95;;
22955;SDS011;40888;48.148;11.526;2022-08-11T14:49:25;2.75;;;1.83;;
22955;SDS011;40888;48.148;11.526;2022-08-11T14:51:51;4.05;;;1.67;;
22955;SDS011;40888;48.148;11.526;2022-08-11T14:54:24;2.03;;;1.77;;
22955;SDS011;40888;48.148;11.526;2022-08-11T14:57:09;4.07;;;2.22;;
22955;SDS011;40888;48.148;11.526;2022-08-11T14:59:36;3.38;;;1.90;;
22955;SDS011;40888;48.148;11.526;2022-08-11T15:02:03;1.85;;;1.65;;
22955;SDS011;40888;48.148;11.526;2022-08-11T15:04:49;1.92;;;1.77;;
22955;SDS011;40888;48.148;11.526;2022-08-11T15:07:16;3.08;;;2.15;;
22955;SDS011;40888;48.148;11.526;2022-08-11T15:09:43;2.20;;;2.00;;
22955;SDS011;40888;48.148;11.526;2022-08-11T15:12:09;4.38;;;2.00;;
22955;SDS011;40888;48.148;11.526;2022-08-11T15:14:45;2.38;;;2.05;;
22955;SDS011;40888;48.148;11.526;2022-08-11T15:17:30;2.78;;;1.80;;
22955;SDS011;40888;48.148;11.526;2022-08-11T15:19:59;2.70;;;1.70;;
22955;SDS011;40888;48.148;11.526;2022-08-11T15:22:44;1.70;;;1.60;;
22955;SDS011;40888;48.148;11.526;2022-08-11T15:25:29;2.00;;;1.80;;
22955;SDS011;40888;48.148;11.526;2022-08-11T15:27:58;2.58;;;1.90;;
22955;SDS011;40888;48.148;11.526;2022-08-11T15:30:43;2.75;;;1.70;;
22955;SDS011;40888;48.148;11.526;2022-08-11T15:33:28;5.22;;;1.90;;
22955;SDS011;40888;48.148;11.526;2022-08-11T15:36:13;1.90;;;1.80;;
22955;SDS011;40888;48.148;11.526;2022-08-11T15:39:00;1.63;;;1.52;;
22955;SDS011;40888;48.148;11.526;2022-08-11T15:41:28;3.03;;;1.60;;
22955;SDS011;40888;48.148;11.526;2022-08-11T15:44:17;2.05;;;1.83;;
22955;SDS011;40888;48.148;11.526;2022-08-11T15:47:03;3.80;;;2.05;;
22955;SDS011;40888;48.148;11.526;2022-08-11T15:49:31;2.30;;;2.10;;
22955;SDS011;40888;48.148;11.526;2022-08-11T15:52:02;2.00;;;1.90;;
22955;SDS011;40888;48.148;11.526;2022-08-11T15:54:31;5.35;;;2.42;;
22955;SDS011;40888;48.148;11.526;2022-08-11T15:56:59;2.42;;;2.03;;
22955;SDS011;40888;48.148;11.526;2022-08-11T15:59:26;2.65;;;1.90;;
22955;SDS011;40888;48.148;11.526;2022-08-11T16:02:12;2.00;;;1.80;;
22955;SDS011;40888;48.148;11.526;2022-08-11T16:04:58;2.00;;;1.90;;
22955;SDS011;40888;48.148;11.526;2022-08-11T16:07:28;2.15;;;1.88;;
22955;SDS011;40888;48.148;11.526;2022-08-11T16:09:59;2.35;;;1.77;;
22955;SDS011;40888;48.148;11.526;2022-08-11T16:12:30;1.90;;;1.77;;
22955;SDS011;40888;48.148;11.526;2022-08-11T16:15:03;2.00;;;1.80;;
22955;SDS011;40888;48.148;11.526;2022-08-11T16:17:49;1.77;;;1.67;;
22955;SDS011;40888;48.148;11.526;2022-08-11T16:20:18;2.10;;;1.90;;
22955;SDS011;40888;48.148;11.526;2022-08-11T16:22:45;1.95;;;1.80;;
22955;SDS011;40888;48.148;11.526;2022-08-11T16:25:14;3.10;;;1.90;;
22955;SDS011;40888;48.148;11.526;2022-08-11T16:27:43;3.95;;;1.73;;
22955;SDS011;40888;48.148;11.526;2022-08-11T16:30:10;2.00;;;1.80;;
22955;SDS011;40888;48.148;11.526;2022-08-11T16:32:39;3.70;;;1.90;;
22955;SDS011;40888;48.148;11.526;2022-08-11T16:35:08;2.63;;;1.73;;
22955;SDS011;40888;48.148;11.526;2022-08-11T16:38:10;2.80;;;1.58;;
22955;SDS011;40888;48.148;11.526;2022-08-11T16:40:55;2.95;;;1.65;;
22955;SDS011;40888;48.148;11.526;2022-08-11T16:43:24;3.05;;;1.95;;
22955;SDS011;40888;48.148;11.526;2022-08-11T16:46:12;2.47;;;1.75;;
22955;SDS011;40888;48.148;11.526;2022-08-11T16:48:58;2.95;;;1.90;;
22955;SDS011;40888;48.148;11.526;2022-08-11T16:51:25;2.83;;;2.00;;
22955;SDS011;40888;48.148;11.526;2022-08-11T16:53:51;2.78;;;1.92;;
22955;SDS011;40888;48.148;11.526;2022-08-11T16:56:18;3.10;;;2.03;;
22955;SDS011;40888;48.148;11.526;2022-08-11T16:58:46;6.83;;;2.20;;
22955;SDS011;40888;48.148;11.526;2022-08-11T17:01:33;3.00;;;1.70;;
22955;SDS011;40888;48.148;11.526;2022-08-11T17:04:03;4.43;;;2.10;;
22955;SDS011;40888;48.148;11.526;2022-08-11T17:06:49;2.20;;;2.10;;
22955;SDS011;40888;48.148;11.526;2022-08-11T17:09:39;3.08;;;1.90;;
22955;SDS011;40888;48.148;11.526;2022-08-11T17:12:25;3.38;;;2.00;;
22955;SDS011;40888;48.148;11.526;2022-08-11T17:15:16;2.50;;;1.77;;
22955;SDS011;40888;48.148;11.526;2022-08-11T17:18:02;2.88;;;2.00;;
22955;SDS011;40888;48.148;11.526;2022-08-11T17:20:28;2.72;;;2.03;;
22955;SDS011;40888;48.148;11.526;2022-08-11T17:22:55;2.38;;;1.85;;
22955;SDS011;40888;48.148;11.526;2022-08-11T17:25:41;6.10;;;1.73;;
22955;SDS011;40888;48.148;11.526;2022-08-11T17:28:08;2.53;;;2.08;;
22955;SDS011;40888;48.148;11.526;2022-08-11T17:30:35;3.65;;;2.13;;
22955;SDS011;40888;48.148;11.526;2022-08-11T17:33:21;1.70;;;1.60;;
22955;SDS011;40888;48.148;11.526;2022-08-11T17:36:06;2.47;;;2.10;;
22955;SDS011;40888;48.148;11.526;2022-08-11T17:38:33;6.13;;;1.88;;
22955;SDS011;40888;48.148;11.526;2022-08-11T17:41:00;3.35;;;1.80;;
22955;SDS011;40888;48.148;11.526;2022-08-11T17:43:46;3.60;;;2.03;;
22955;SDS011;40888;48.148;11.526;2022-08-11T17:46:31;2.58;;;2.03;;
22955;SDS011;40888;48.148;11.526;2022-08-11T17:49:17;1.80;;;1.70;;
22955;SDS011;40888;48.148;11.526;2022-08-11T17:51:45;3.65;;;1.90;;
22955;SDS011;40888;48.148;11.526;2022-08-11T17:54:30;4.35;;;2.20;;
22955;SDS011;40888;48.148;11.526;2022-08-11T17:57:16;3.95;;;1.90;;
22955;SDS011;40888;48.148;11.526;2022-08-11T18:00:21;4.65;;;1.88;;
22955;SDS011;40888;48.148;11.526;2022-08-11T18:02:50;1.88;;;1.70;;
22955;SDS011;40888;48.148;11.526;2022-08-11T18:05:36;3.53;;;2.10;;
22955;SDS011;40888;48.148;11.526;2022-08-11T18:08:04;5.28;;;2.22;;
22955;SDS011;40888;48.148;11.526;2022-08-11T18:10:50;2.58;;;2.30;;
22955;SDS011;40888;48.148;11.526;2022-08-11T18:13:36;2.70;;;2.30;;
22955;SDS011;40888;48.148;11.526;2022-08-11T18:16:21;2.25;;;2.05;;
22955;SDS011;40888;48.148;11.526;2022-08-11T18:19:07;7.85;;;2.00;;
22955;SDS011;40888;48.148;11.526;2022-08-11T18:21:53;2.38;;;2.15;;